sensor_id;sensor_type;location;lat;lon;timestamp;pressure;altitude;pressure_sealevel;temperature;humidity
24892;BME280;12954;50.688;10.908;2023-04-15T00:00:56;94655.25;;;5.28;64.70
24892;BME280;12954;50.688;10.908;2023-04-15T00:03:25;94657.16;;;5.27;64.74
24892;BME280;12954;50.688;10.908;2023-04-15T00:05:54;94661.16;;;5.25;64.64
24892;BME280;12954;50.688;10.908;2023-04-15T00:08:23;94638.16;;;5.14;64.55
24892;BME280;12954;50.688;10.908;2023-04-15T00:10:53;94660.09;;;5.21;64.80
24892;BME280;12954;50.688;10.908;2023-04-15T00:13:22;94655.56;;;5.21;64.47
24892;BME280;12954;50.688;10.908;2023-04-15T00:15:50;94649.66;;;5.14;64.41
24892;BME280;12954;50.688;10.908;2023-04-15T00:18:19;94654.50;;;5.12;64.93
24892;BME280;12954;50.688;10.908;2023-04-15T00:20:47;94650.47;;;5.15;64.61
24892;BME280;12954;50.688;10.908;2023-04-15T00:23:16;94640.31;;;5.12;64.84
24892;BME280;12954;50.688;10.908;2023-04-15T00:25:44;94640.59;;;5.00;65.04
24892;BME280;12954;50.688;10.908;2023-04-15T00:28:14;94640.06;;;4.98;65.09
24892;BME280;12954;50.688;10.908;2023-04-15T00:30:42;94633.63;;;4.99;64.82
24892;BME280;12954;50.688;10.908;2023-04-15T00:33:12;94639.75;;;4.89;65.17
24892;BME280;12954;50.688;10.908;2023-04-15T00:35:40;94622.69;;;4.80;65.07
24892;BME280;12954;50.688;10.908;2023-04-15T00:38:09;94624.53;;;4.70;65.40
24892;BME280;12954;50.688;10.908;2023-04-15T00:40:37;94548.69;;;4.30;65.21
24892;BME280;12954;50.688;10.908;2023-04-15T00:43:07;94611.97;;;4.75;65.56
24892;BME280;12954;50.688;10.908;2023-04-15T00:45:36;94591.69;;;4.59;65.65
24892;BME280;12954;50.688;10.908;2023-04-15T00:48:05;94627.75;;;4.87;65.33
24892;BME280;12954;50.688;10.908;2023-04-15T00:50:35;94627.50;;;4.88;65.27
24892;BME280;12954;50.688;10.908;2023-04-15T00:53:03;94622.41;;;4.87;65.54
24892;BME280;12954;50.688;10.908;2023-04-15T00:55:32;94587.97;;;4.65;65.14
24892;BME280;12954;50.688;10.908;2023-04-15T00:58:00;94620.81;;;4.86;65.67
24892;BME280;12954;50.688;10.908;2023-04-15T01:00:29;94618.66;;;4.88;65.62
24892;BME280;12954;50.688;10.908;2023-04-15T01:02:59;94612.50;;;4.92;64.98
24892;BME280;12954;50.688;10.908;2023-04-15T01:05:28;94602.09;;;4.81;65.22
24892;BME280;12954;50.688;10.908;2023-04-15T01:07:57;94589.56;;;4.76;65.07
24892;BME280;12954;50.688;10.908;2023-04-15T01:10:26;94614.38;;;4.87;64.96
24892;BME280;12954;50.688;10.908;2023-04-15T01:12:54;94606.38;;;4.67;65.74
24892;BME280;12954;50.688;10.908;2023-04-15T01:15:23;94618.13;;;4.76;65.54
24892;BME280;12954;50.688;10.908;2023-04-15T01:17:52;94611.72;;;4.87;64.93
24892;BME280;12954;50.688;10.908;2023-04-15T01:20:22;94611.72;;;4.82;65.22
24892;BME280;12954;50.688;10.908;2023-04-15T01:22:50;94608.50;;;4.75;65.47
24892;BME280;12954;50.688;10.908;2023-04-15T01:25:26;94599.16;;;4.72;65.53
24892;BME280;12954;50.688;10.908;2023-04-15T01:27:55;94599.97;;;4.83;65.33
24892;BME280;12954;50.688;10.908;2023-04-15T01:30:24;94597.56;;;4.76;65.27
24892;BME280;12954;50.688;10.908;2023-04-15T01:32:52;94600.50;;;4.75;65.45
24892;BME280;12954;50.688;10.908;2023-04-15T01:35:21;94602.09;;;4.76;65.22
24892;BME280;12954;50.688;10.908;2023-04-15T01:37:49;94597.56;;;4.76;65.35
24892;BME280;12954;50.688;10.908;2023-04-15T01:40:18;94560.97;;;4.47;65.40
24892;BME280;12954;50.688;10.908;2023-04-15T01:42:48;94586.88;;;4.71;65.56
24892;BME280;12954;50.688;10.908;2023-04-15T01:45:17;94578.63;;;4.63;65.66
24892;BME280;12954;50.688;10.908;2023-04-15T01:47:46;94577.00;;;4.57;65.78
24892;BME280;12954;50.688;10.908;2023-04-15T01:50:15;94593.56;;;4.69;65.57
24892;BME280;12954;50.688;10.908;2023-04-15T01:52:43;94593.81;;;4.72;65.59
24892;BME280;12954;50.688;10.908;2023-04-15T01:55:12;94582.34;;;4.57;65.61
24892;BME280;12954;50.688;10.908;2023-04-15T01:57:41;94596.25;;;4.74;65.63
24892;BME280;12954;50.688;10.908;2023-04-15T02:00:11;94588.22;;;4.79;65.39
24892;BME280;12954;50.688;10.908;2023-04-15T02:02:40;94591.16;;;4.82;65.12
24892;BME280;12954;50.688;10.908;2023-04-15T02:05:09;94591.41;;;4.81;65.39
24892;BME280;12954;50.688;10.908;2023-04-15T02:07:37;94589.03;;;4.79;65.44
24892;BME280;12954;50.688;10.908;2023-04-15T02:10:06;94589.81;;;4.80;65.50
24892;BME280;12954;50.688;10.908;2023-04-15T02:12:35;94590.34;;;4.82;65.30
24892;BME280;12954;50.688;10.908;2023-04-15T02:15:04;94585.28;;;4.80;65.60
24892;BME280;12954;50.688;10.908;2023-04-15T02:17:34;94547.63;;;4.62;65.14
24892;BME280;12954;50.688;10.908;2023-04-15T02:20:04;94585.28;;;4.85;65.41
24892;BME280;12954;50.688;10.908;2023-04-15T02:22:33;94590.88;;;4.94;64.75
24892;BME280;12954;50.688;10.908;2023-04-15T02:25:01;94586.06;;;4.91;64.71
24892;BME280;12954;50.688;10.908;2023-04-15T02:27:29;94585.00;;;4.82;64.93
24892;BME280;12954;50.688;10.908;2023-04-15T02:29:58;94578.31;;;4.84;64.89
24892;BME280;12954;50.688;10.908;2023-04-15T02:32:26;94577.81;;;4.82;65.20
24892;BME280;12954;50.688;10.908;2023-04-15T02:35:01;94583.94;;;4.88;64.74
24892;BME280;12954;50.688;10.908;2023-04-15T02:37:30;94561.53;;;4.69;64.77
24892;BME280;12954;50.688;10.908;2023-04-15T02:40:01;94577.53;;;4.84;65.07
24892;BME280;12954;50.688;10.908;2023-04-15T02:42:30;94581.81;;;4.85;65.14
24892;BME280;12954;50.688;10.908;2023-04-15T02:44:59;94580.19;;;4.84;65.29
24892;BME280;12954;50.688;10.908;2023-04-15T02:47:28;94562.31;;;4.79;65.06
24892;BME280;12954;50.688;10.908;2023-04-15T02:49:58;94575.91;;;4.88;65.06
24892;BME280;12954;50.688;10.908;2023-04-15T02:52:27;94574.56;;;4.90;64.94
24892;BME280;12954;50.688;10.908;2023-04-15T02:54:55;94577.25;;;4.90;64.90
24892;BME280;12954;50.688;10.908;2023-04-15T02:57:26;94565.22;;;4.88;64.85
24892;BME280;12954;50.688;10.908;2023-04-15T02:59:55;94574.88;;;4.89;64.79
24892;BME280;12954;50.688;10.908;2023-04-15T03:02:23;94552.16;;;4.66;65.07
24892;BME280;12954;50.688;10.908;2023-04-15T03:04:53;94525.19;;;4.48;64.93
24892;BME280;12954;50.688;10.908;2023-04-15T03:07:24;94577.53;;;4.84;64.91
24892;BME280;12954;50.688;10.908;2023-04-15T03:09:52;94556.19;;;4.69;65.03
24892;BME280;12954;50.688;10.908;2023-04-15T03:12:21;94570.03;;;4.76;65.31
24892;BME280;12954;50.688;10.908;2023-04-15T03:14:49;94538.25;;;4.34;65.22
24892;BME280;12954;50.688;10.908;2023-04-15T03:17:17;94566.88;;;4.69;65.27
24892;BME280;12954;50.688;10.908;2023-04-15T03:19:46;94543.59;;;4.49;65.40
24892;BME280;12954;50.688;10.908;2023-04-15T03:22:14;94577.78;;;4.72;65.44
24892;BME280;12954;50.688;10.908;2023-04-15T03:24:44;94572.75;;;4.66;65.21
24892;BME280;12954;50.688;10.908;2023-04-15T03:27:12;94571.66;;;4.62;65.79
24892;BME280;12954;50.688;10.908;2023-04-15T03:29:41;94568.97;;;4.67;65.24
24892;BME280;12954;50.688;10.908;2023-04-15T03:32:09;94563.66;;;4.62;65.35
24892;BME280;12954;50.688;10.908;2023-04-15T03:34:38;94558.84;;;4.59;65.68
24892;BME280;12954;50.688;10.908;2023-04-15T03:37:07;94564.19;;;4.54;65.76
24892;BME280;12954;50.688;10.908;2023-04-15T03:39:35;94551.06;;;4.32;66.09
24892;BME280;12954;50.688;10.908;2023-04-15T03:42:05;94561.78;;;4.42;66.07
24892;BME280;12954;50.688;10.908;2023-04-15T03:44:34;94554.56;;;4.37;66.60
24892;BME280;12954;50.688;10.908;2023-04-15T03:47:02;94562.84;;;4.36;66.38
24892;BME280;12954;50.688;10.908;2023-04-15T03:49:31;94510.97;;;3.86;66.24
24892;BME280;12954;50.688;10.908;2023-04-15T03:51:59;94563.63;;;4.31;66.69
24892;BME280;12954;50.688;10.908;2023-04-15T03:54:28;94553.22;;;4.35;66.73
24892;BME280;12954;50.688;10.908;2023-04-15T03:56:56;94491.25;;;3.98;66.33
24892;BME280;12954;50.688;10.908;2023-04-15T03:59:26;94551.63;;;4.39;66.40
24892;BME280;12954;50.688;10.908;2023-04-15T04:01:54;94518.72;;;4.08;66.46
24892;BME280;12954;50.688;10.908;2023-04-15T04:04:22;94558.84;;;4.33;66.74
24892;BME280;12954;50.688;10.908;2023-04-15T04:06:51;94558.31;;;4.36;66.51
24892;BME280;12954;50.688;10.908;2023-04-15T04:09:19;94555.59;;;4.31;66.74
24892;BME280;12954;50.688;10.908;2023-04-15T04:11:48;94558.25;;;4.26;66.78
24892;BME280;12954;50.688;10.908;2023-04-15T04:14:16;94562.50;;;4.22;67.17
24892;BME280;12954;50.688;10.908;2023-04-15T04:16:46;94545.41;;;4.08;66.99
24892;BME280;12954;50.688;10.908;2023-04-15T04:19:14;94561.97;;;4.15;67.32
24892;BME280;12954;50.688;10.908;2023-04-15T04:21:45;94563.84;;;4.20;67.10
24892;BME280;12954;50.688;10.908;2023-04-15T04:24:13;94558.50;;;4.20;67.08
24892;BME280;12954;50.688;10.908;2023-04-15T04:26:42;94556.09;;;4.08;67.59
24892;BME280;12954;50.688;10.908;2023-04-15T04:29:10;94450.59;;;3.45;67.29
24892;BME280;12954;50.688;10.908;2023-04-15T04:31:39;94565.16;;;4.07;67.50
24892;BME280;12954;50.688;10.908;2023-04-15T04:34:09;94543.22;;;3.85;67.59
24892;BME280;12954;50.688;10.908;2023-04-15T04:36:37;94557.94;;;4.03;67.55
24892;BME280;12954;50.688;10.908;2023-04-15T04:39:06;94564.59;;;3.95;68.34
24892;BME280;12954;50.688;10.908;2023-04-15T04:41:34;94568.84;;;3.96;68.27
24892;BME280;12954;50.688;10.908;2023-04-15T04:44:03;94571.53;;;3.91;68.31
24892;BME280;12954;50.688;10.908;2023-04-15T04:46:31;94562.72;;;3.96;68.41
24892;BME280;12954;50.688;10.908;2023-04-15T04:48:59;94564.09;;;4.03;68.10
24892;BME280;12954;50.688;10.908;2023-04-15T04:51:30;94543.75;;;3.87;67.98
24892;BME280;12954;50.688;10.908;2023-04-15T04:53:58;94561.13;;;3.95;68.67
24892;BME280;12954;50.688;10.908;2023-04-15T04:56:29;94544.31;;;3.94;68.04
24892;BME280;12954;50.688;10.908;2023-04-15T04:58:57;94556.31;;;3.92;68.44
24892;BME280;12954;50.688;10.908;2023-04-15T05:01:26;94561.41;;;3.98;68.31
24892;BME280;12954;50.688;10.908;2023-04-15T05:03:55;94559.81;;;3.97;68.44
24892;BME280;12954;50.688;10.908;2023-04-15T05:06:23;94562.19;;;3.99;68.02
24892;BME280;12954;50.688;10.908;2023-04-15T05:08:53;94561.38;;;3.88;68.88
24892;BME280;12954;50.688;10.908;2023-04-15T05:11:22;94567.78;;;3.92;68.30
24892;BME280;12954;50.688;10.908;2023-04-15T05:13:50;94573.91;;;3.82;69.22
24892;BME280;12954;50.688;10.908;2023-04-15T05:16:19;94559.81;;;3.97;68.44
24892;BME280;12954;50.688;10.908;2023-04-15T05:18:47;94561.38;;;3.83;69.07
24892;BME280;12954;50.688;10.908;2023-04-15T05:21:16;94548.03;;;3.83;69.04
24892;BME280;12954;50.688;10.908;2023-04-15T05:23:44;94549.09;;;3.87;69.45
24892;BME280;12954;50.688;10.908;2023-04-15T05:26:14;94550.19;;;3.91;69.13
24892;BME280;12954;50.688;10.908;2023-04-15T05:28:43;94548.56;;;3.90;69.15
24892;BME280;12954;50.688;10.908;2023-04-15T05:31:12;94555.03;;;4.04;68.51
24892;BME280;12954;50.688;10.908;2023-04-15T05:33:40;94559.75;;;3.87;69.27
24892;BME280;12954;50.688;10.908;2023-04-15T05:36:09;94527.75;;;3.82;68.80
24892;BME280;12954;50.688;10.908;2023-04-15T05:38:37;94561.09;;;3.84;69.33
24892;BME280;12954;50.688;10.908;2023-04-15T05:41:06;94560.56;;;3.82;69.49
24892;BME280;12954;50.688;10.908;2023-04-15T05:43:36;94574.47;;;3.89;69.17
24892;BME280;12954;50.688;10.908;2023-04-15T05:46:04;94568.84;;;3.96;69.14
24892;BME280;12954;50.688;10.908;2023-04-15T05:48:32;94567.25;;;3.90;69.49
24892;BME280;12954;50.688;10.908;2023-04-15T05:51:01;94562.19;;;3.99;69.08
24892;BME280;12954;50.688;10.908;2023-04-15T05:53:29;94556.84;;;3.88;69.63
24892;BME280;12954;50.688;10.908;2023-04-15T05:55:57;94553.91;;;3.85;69.58
24892;BME280;12954;50.688;10.908;2023-04-15T05:58:26;94559.75;;;3.87;69.89
24892;BME280;12954;50.688;10.908;2023-04-15T06:00:55;94528.78;;;3.71;69.44
24892;BME280;12954;50.688;10.908;2023-04-15T06:03:24;94452.41;;;3.24;69.68
24892;BME280;12954;50.688;10.908;2023-04-15T06:05:53;94560.28;;;3.84;70.06
24892;BME280;12954;50.688;10.908;2023-04-15T06:08:21;94565.66;;;3.89;69.99
24892;BME280;12954;50.688;10.908;2023-04-15T06:10:50;94554.44;;;3.87;70.02
24892;BME280;12954;50.688;10.908;2023-04-15T06:13:18;94556.56;;;3.90;70.08
24892;BME280;12954;50.688;10.908;2023-04-15T06:15:46;94550.69;;;3.88;70.10
24892;BME280;12954;50.688;10.908;2023-04-15T06:18:17;94544.03;;;3.90;69.84
24892;BME280;12954;50.688;10.908;2023-04-15T06:20:45;94547.75;;;3.84;70.47
24892;BME280;12954;50.688;10.908;2023-04-15T06:23:14;94550.69;;;3.88;70.41
24892;BME280;12954;50.688;10.908;2023-04-15T06:25:42;94551.50;;;3.94;70.19
24892;BME280;12954;50.688;10.908;2023-04-15T06:28:11;94555.50;;;3.91;70.20
24892;BME280;12954;50.688;10.908;2023-04-15T06:30:39;94551.22;;;3.90;70.48
24892;BME280;12954;50.688;10.908;2023-04-15T06:33:08;94559.22;;;3.85;70.85
24892;BME280;12954;50.688;10.908;2023-04-15T06:35:38;94559.81;;;3.97;70.19
24892;BME280;12954;50.688;10.908;2023-04-15T06:38:06;94567.25;;;3.90;70.55
24892;BME280;12954;50.688;10.908;2023-04-15T06:40:35;94562.44;;;3.87;70.49
24892;BME280;12954;50.688;10.908;2023-04-15T06:43:03;94416.84;;;2.94;70.64
24892;BME280;12954;50.688;10.908;2023-04-15T06:45:32;94563.78;;;3.95;70.52
24892;BME280;12954;50.688;10.908;2023-04-15T06:48:00;94559.75;;;3.87;70.81
24892;BME280;12954;50.688;10.908;2023-04-15T06:50:29;94558.19;;;3.86;70.94
24892;BME280;12954;50.688;10.908;2023-04-15T06:52:59;94559.00;;;3.92;70.52
24892;BME280;12954;50.688;10.908;2023-04-15T06:55:27;94541.66;;;3.89;70.38
24892;BME280;12954;50.688;10.908;2023-04-15T06:57:57;94558.19;;;3.86;71.02
24892;BME280;12954;50.688;10.908;2023-04-15T07:00:25;94565.66;;;3.99;70.50
24892;BME280;12954;50.688;10.908;2023-04-15T07:02:54;94561.91;;;3.90;70.90
24892;BME280;12954;50.688;10.908;2023-04-15T07:05:23;94556.84;;;3.88;71.32
24892;BME280;12954;50.688;10.908;2023-04-15T07:07:52;94573.41;;;4.01;70.43
24892;BME280;12954;50.688;10.908;2023-04-15T07:10:22;94568.34;;;3.99;70.74
24892;BME280;12954;50.688;10.908;2023-04-15T07:12:51;94564.38;;;4.07;70.38
24892;BME280;12954;50.688;10.908;2023-04-15T07:15:19;94567.31;;;4.15;69.67
24892;BME280;12954;50.688;10.908;2023-04-15T07:17:48;94579.53;;;3.96;70.94
24892;BME280;12954;50.688;10.908;2023-04-15T07:20:17;94563.28;;;4.03;70.33
24892;BME280;12954;50.688;10.908;2023-04-15T07:22:45;94563.25;;;3.93;70.99
24892;BME280;12954;50.688;10.908;2023-04-15T07:25:14;94568.31;;;3.94;70.74
24892;BME280;12954;50.688;10.908;2023-04-15T07:27:44;94556.00;;;3.78;71.47
24892;BME280;12954;50.688;10.908;2023-04-15T07:30:13;94565.13;;;3.97;71.03
24892;BME280;12954;50.688;10.908;2023-04-15T07:32:41;94572.88;;;3.99;71.04
24892;BME280;12954;50.688;10.908;2023-04-15T07:35:10;94580.63;;;4.00;71.28
24892;BME280;12954;50.688;10.908;2023-04-15T07:37:39;94578.47;;;4.02;71.22
24892;BME280;12954;50.688;10.908;2023-04-15T07:40:10;94576.63;;;3.98;71.48
24892;BME280;12954;50.688;10.908;2023-04-15T07:42:40;94582.25;;;4.11;70.98
24892;BME280;12954;50.688;10.908;2023-04-15T07:45:11;94570.50;;;4.17;70.46
24892;BME280;12954;50.688;10.908;2023-04-15T07:47:40;94566.22;;;4.01;70.58
24892;BME280;12954;50.688;10.908;2023-04-15T07:50:09;94583.28;;;4.05;70.86
24892;BME280;12954;50.688;10.908;2023-04-15T07:52:38;94587.28;;;4.08;71.12
24892;BME280;12954;50.688;10.908;2023-04-15T07:55:07;94575.81;;;3.97;71.44
24892;BME280;12954;50.688;10.908;2023-04-15T07:57:36;94591.84;;;4.07;71.31
24892;BME280;12954;50.688;10.908;2023-04-15T08:00:06;94561.38;;;3.88;71.28
24892;BME280;12954;50.688;10.908;2023-04-15T08:02:36;94593.47;;;4.18;71.00
24892;BME280;12954;50.688;10.908;2023-04-15T08:05:06;94593.47;;;4.18;71.03
24892;BME280;12954;50.688;10.908;2023-04-15T08:07:35;94590.00;;;4.23;70.48
24892;BME280;12954;50.688;10.908;2023-04-15T08:10:05;94588.13;;;4.18;70.83
24892;BME280;12954;50.688;10.908;2023-04-15T08:12:34;94598.25;;;4.16;70.93
24892;BME280;12954;50.688;10.908;2023-04-15T08:15:03;94593.44;;;4.13;71.19
24892;BME280;12954;50.688;10.908;2023-04-15T08:17:32;94583.28;;;4.10;71.93
24892;BME280;12954;50.688;10.908;2023-04-15T08:20:02;94555.50;;;3.91;70.99
24892;BME280;12954;50.688;10.908;2023-04-15T08:22:31;94600.41;;;4.19;71.30
24892;BME280;12954;50.688;10.908;2023-04-15T08:25:00;94606.78;;;4.13;71.52
24892;BME280;12954;50.688;10.908;2023-04-15T08:27:29;94603.34;;;4.18;71.24
24892;BME280;12954;50.688;10.908;2023-04-15T08:29:57;94612.13;;;4.08;71.95
24892;BME280;12954;50.688;10.908;2023-04-15T08:32:29;94520.22;;;3.59;71.63
24892;BME280;12954;50.688;10.908;2023-04-15T08:34:58;94613.47;;;4.11;71.94
24892;BME280;12954;50.688;10.908;2023-04-15T08:37:28;94614.53;;;4.15;71.29
24892;BME280;12954;50.688;10.908;2023-04-15T08:39:56;94575.81;;;3.97;71.06
24892;BME280;12954;50.688;10.908;2023-04-15T08:42:29;94619.06;;;4.09;71.83
24892;BME280;12954;50.688;10.908;2023-04-15T08:44:59;94617.75;;;4.12;72.16
24892;BME280;12954;50.688;10.908;2023-04-15T08:47:29;94617.22;;;4.20;71.78
24892;BME280;12954;50.688;10.908;2023-04-15T08:49:58;94621.75;;;4.19;71.79
24892;BME280;12954;50.688;10.908;2023-04-15T08:52:31;94603.06;;;4.09;71.86
24892;BME280;12954;50.688;10.908;2023-04-15T08:54:59;94630.81;;;4.13;72.62
24892;BME280;12954;50.688;10.908;2023-04-15T08:57:29;94620.44;;;4.22;72.33
24892;BME280;12954;50.688;10.908;2023-04-15T09:00:00;94583.28;;;3.95;72.27
24892;BME280;12954;50.688;10.908;2023-04-15T09:02:31;94625.50;;;4.18;72.56
24892;BME280;12954;50.688;10.908;2023-04-15T09:05:00;94619.16;;;4.29;72.69
24892;BME280;12954;50.688;10.908;2023-04-15T09:07:34;94626.63;;;4.37;72.19
24892;BME280;12954;50.688;10.908;2023-04-15T09:10:03;94628.28;;;4.54;71.60
24892;BME280;12954;50.688;10.908;2023-04-15T09:12:33;94625.84;;;4.42;71.63
24892;BME280;12954;50.688;10.908;2023-04-15T09:15:03;94627.97;;;4.40;71.84
24892;BME280;12954;50.688;10.908;2023-04-15T09:17:32;94628.78;;;4.40;72.21
24892;BME280;12954;50.688;10.908;2023-04-15T09:20:08;94610.81;;;4.26;72.58
24892;BME280;12954;50.688;10.908;2023-04-15T09:22:39;94638.97;;;4.54;71.65
24892;BME280;12954;50.688;10.908;2023-04-15T09:25:26;94644.03;;;4.50;71.80
24892;BME280;12954;50.688;10.908;2023-04-15T09:27:58;94645.88;;;4.55;72.14
24892;BME280;12954;50.688;10.908;2023-04-15T09:30:27;94613.78;;;4.24;71.68
24892;BME280;12954;50.688;10.908;2023-04-15T09:32:57;94643.75;;;4.47;71.71
24892;BME280;12954;50.688;10.908;2023-04-15T09:35:27;94631.66;;;4.24;71.62
24892;BME280;12954;50.688;10.908;2023-04-15T09:38:03;94625.03;;;4.31;71.96
24892;BME280;12954;50.688;10.908;2023-04-15T09:40:34;94674.22;;;4.61;71.84
24892;BME280;12954;50.688;10.908;2023-04-15T09:43:03;94677.97;;;4.65;71.74
24892;BME280;12954;50.688;10.908;2023-04-15T09:45:33;94674.75;;;4.68;71.65
24892;BME280;12954;50.688;10.908;2023-04-15T09:48:15;94685.44;;;4.68;71.81
24892;BME280;12954;50.688;10.908;2023-04-15T09:50:43;94623.97;;;4.32;71.90
24892;BME280;12954;50.688;10.908;2023-04-15T09:53:16;94683.06;;;4.76;71.61
24892;BME280;12954;50.688;10.908;2023-04-15T09:55:48;94684.91;;;4.81;71.40
24892;BME280;12954;50.688;10.908;2023-04-15T09:58:18;94677.97;;;4.70;71.52
24892;BME280;12954;50.688;10.908;2023-04-15T10:00:47;94663.53;;;4.56;71.57
24892;BME280;12954;50.688;10.908;2023-04-15T10:03:18;94672.63;;;4.75;71.52
24892;BME280;12954;50.688;10.908;2023-04-15T10:05:49;94673.97;;;4.72;71.35
24892;BME280;12954;50.688;10.908;2023-04-15T10:08:20;94663.56;;;4.71;71.68
24892;BME280;12954;50.688;10.908;2023-04-15T10:10:50;94677.44;;;4.78;71.53
24892;BME280;12954;50.688;10.908;2023-04-15T10:13:20;94646.41;;;4.41;71.28
24892;BME280;12954;50.688;10.908;2023-04-15T10:15:57;94668.38;;;4.79;71.13
24892;BME280;12954;50.688;10.908;2023-04-15T10:18:27;94677.19;;;4.89;71.42
24892;BME280;12954;50.688;10.908;2023-04-15T10:20:56;94660.88;;;4.81;71.21
24892;BME280;12954;50.688;10.908;2023-04-15T10:23:26;94660.34;;;4.74;71.27
24892;BME280;12954;50.688;10.908;2023-04-15T10:25:55;94679.06;;;4.89;71.38
24892;BME280;12954;50.688;10.908;2023-04-15T10:28:24;94531.78;;;3.89;71.73
24892;BME280;12954;50.688;10.908;2023-04-15T10:30:53;94682.28;;;4.91;71.83
24892;BME280;12954;50.688;10.908;2023-04-15T10:33:23;94681.50;;;5.00;71.77
24892;BME280;12954;50.688;10.908;2023-04-15T10:35:52;94689.78;;;5.04;71.82
24892;BME280;12954;50.688;10.908;2023-04-15T10:38:33;94681.50;;;5.00;71.21
24892;BME280;12954;50.688;10.908;2023-04-15T10:41:12;94665.97;;;4.87;71.18
24892;BME280;12954;50.688;10.908;2023-04-15T10:43:49;94691.38;;;5.00;71.40
24892;BME280;12954;50.688;10.908;2023-04-15T10:46:21;94686.28;;;5.04;71.41
24892;BME280;12954;50.688;10.908;2023-04-15T10:48:51;94687.09;;;5.04;71.69
24892;BME280;12954;50.688;10.908;2023-04-15T10:51:27;94687.09;;;5.14;71.46
24892;BME280;12954;50.688;10.908;2023-04-15T10:53:58;94695.63;;;5.16;71.09
24892;BME280;12954;50.688;10.908;2023-04-15T10:56:28;94692.97;;;5.11;71.45
24892;BME280;12954;50.688;10.908;2023-04-15T10:58:58;94690.81;;;5.13;71.62
24892;BME280;12954;50.688;10.908;2023-04-15T11:01:49;94695.66;;;5.26;71.12
24892;BME280;12954;50.688;10.908;2023-04-15T11:04:53;94688.69;;;5.25;71.32
24892;BME280;12954;50.688;10.908;2023-04-15T11:07:36;94689.50;;;5.16;71.74
24892;BME280;12954;50.688;10.908;2023-04-15T11:13:24;94695.66;;;5.21;71.39
24892;BME280;12954;50.688;10.908;2023-04-15T11:15:58;94699.91;;;5.07;71.75
24892;BME280;12954;50.688;10.908;2023-04-15T11:18:29;94687.63;;;5.21;71.22
24892;BME280;12954;50.688;10.908;2023-04-15T11:21:03;94681.22;;;5.12;71.39
24892;BME280;12954;50.688;10.908;2023-04-15T11:23:35;94708.47;;;5.14;71.62
24892;BME280;12954;50.688;10.908;2023-04-15T11:26:06;94711.69;;;5.26;71.63
24892;BME280;12954;50.688;10.908;2023-04-15T11:28:40;94722.91;;;5.23;71.33
24892;BME280;12954;50.688;10.908;2023-04-15T11:31:12;94665.16;;;4.87;71.32
24892;BME280;12954;50.688;10.908;2023-04-15T11:33:45;94717.59;;;5.33;71.02
24892;BME280;12954;50.688;10.908;2023-04-15T11:36:14;94730.94;;;5.38;70.67
24892;BME280;12954;50.688;10.908;2023-04-15T11:38:45;94703.13;;;5.14;71.14
24892;BME280;12954;50.688;10.908;2023-04-15T11:41:14;94725.31;;;5.35;71.23
24892;BME280;12954;50.688;10.908;2023-04-15T11:43:48;94729.34;;;5.37;70.89
24892;BME280;12954;50.688;10.908;2023-04-15T11:46:17;94726.13;;;5.35;70.86
24892;BME280;12954;50.688;10.908;2023-04-15T11:48:46;94692.19;;;5.21;70.54
24892;BME280;12954;50.688;10.908;2023-04-15T11:51:14;94732.53;;;5.34;70.80
24892;BME280;12954;50.688;10.908;2023-04-15T11:53:45;94741.91;;;5.27;71.11
24892;BME280;12954;50.688;10.908;2023-04-15T11:56:17;94737.63;;;5.31;71.04
24892;BME280;12954;50.688;10.908;2023-04-15T11:58:47;94742.44;;;5.24;71.28
24892;BME280;12954;50.688;10.908;2023-04-15T12:01:17;94736.81;;;5.35;71.05
24892;BME280;12954;50.688;10.908;2023-04-15T12:03:46;94755.53;;;5.25;71.75
24892;BME280;12954;50.688;10.908;2023-04-15T12:06:17;94748.31;;;5.31;71.24
24892;BME280;12954;50.688;10.908;2023-04-15T12:09:03;94748.59;;;5.29;71.45
24892;BME280;12954;50.688;10.908;2023-04-15T12:11:36;94742.16;;;5.20;71.93
24892;BME280;12954;50.688;10.908;2023-04-15T12:14:09;94761.69;;;5.31;72.10
24892;BME280;12954;50.688;10.908;2023-04-15T12:16:40;94764.63;;;5.49;70.82
24892;BME280;12954;50.688;10.908;2023-04-15T12:19:18;94756.63;;;5.44;71.53
24892;BME280;12954;50.688;10.908;2023-04-15T12:21:48;94773.47;;;5.35;71.68
24892;BME280;12954;50.688;10.908;2023-04-15T12:24:20;94773.72;;;5.38;71.81
24892;BME280;12954;50.688;10.908;2023-04-15T12:26:51;94737.34;;;5.12;71.92
24892;BME280;12954;50.688;10.908;2023-04-15T12:29:25;94778.81;;;5.45;71.63
24892;BME280;12954;50.688;10.908;2023-04-15T12:31:56;94791.13;;;5.41;71.53
24892;BME280;12954;50.688;10.908;2023-04-15T12:34:27;94794.31;;;5.38;71.75
24892;BME280;12954;50.688;10.908;2023-04-15T12:36:57;94792.97;;;5.45;71.40
24892;BME280;12954;50.688;10.908;2023-04-15T12:39:27;94804.75;;;5.34;72.02
24892;BME280;12954;50.688;10.908;2023-04-15T12:41:56;94803.69;;;5.40;71.86
24892;BME280;12954;50.688;10.908;2023-04-15T12:44:27;94804.22;;;5.32;72.06
24892;BME280;12954;50.688;10.908;2023-04-15T12:46:56;94812.22;;;5.42;71.64
24892;BME280;12954;50.688;10.908;2023-04-15T12:49:25;94809.03;;;5.40;71.30
24892;BME280;12954;50.688;10.908;2023-04-15T12:51:55;94815.97;;;5.31;72.12
24892;BME280;12954;50.688;10.908;2023-04-15T12:54:23;94820.25;;;5.27;72.21
24892;BME280;12954;50.688;10.908;2023-04-15T12:56:53;94819.72;;;5.35;72.14
24892;BME280;12954;50.688;10.908;2023-04-15T12:59:21;94829.91;;;5.43;71.63
24892;BME280;12954;50.688;10.908;2023-04-15T13:01:52;94822.44;;;5.50;71.34
24892;BME280;12954;50.688;10.908;2023-04-15T13:04:21;94829.91;;;5.43;71.82
24892;BME280;12954;50.688;10.908;2023-04-15T13:06:49;94770.78;;;5.10;71.15
24892;BME280;12954;50.688;10.908;2023-04-15T13:09:18;94826.41;;;5.43;71.80
24892;BME280;12954;50.688;10.908;2023-04-15T13:11:46;94818.09;;;5.34;71.93
24892;BME280;12954;50.688;10.908;2023-04-15T13:14:16;94828.84;;;5.49;71.99
24892;BME280;12954;50.688;10.908;2023-04-15T13:16:45;94826.97;;;5.55;71.88